sensor_id;sensor_type;location;lat;lon;timestamp;temperature;humidity
27162;DHT22;54464;50.558;9.704;2023-02-15T00:01:55;0.20;99.90
27162;DHT22;54464;50.558;9.704;2023-02-15T00:04:23;0.20;99.90
27162;DHT22;54464;50.558;9.704;2023-02-15T00:06:50;0.20;99.90
27162;DHT22;54464;50.558;9.704;2023-02-15T00:09:16;0.30;99.90
27162;DHT22;54464;50.558;9.704;2023-02-15T00:11:42;0.30;99.90
27162;DHT22;54464;50.558;9.704;2023-02-15T00:14:13;0.40;99.90
27162;DHT22;54464;50.558;9.704;2023-02-15T00:16:40;0.30;99.90
27162;DHT22;54464;50.558;9.704;2023-02-15T00:19:07;0.30;99.90
27162;DHT22;54464;50.558;9.704;2023-02-15T00:21:34;0.20;99.90
27162;DHT22;54464;50.558;9.704;2023-02-15T00:24:02;0.10;99.90
27162;DHT22;54464;50.558;9.704;2023-02-15T00:26:29;0.10;99.90
27162;DHT22;54464;50.558;9.704;2023-02-15T00:28:55;0.10;99.90
27162;DHT22;54464;50.558;9.704;2023-02-15T00:31:21;0.10;99.90
27162;DHT22;54464;50.558;9.704;2023-02-15T00:33:47;0.10;99.90
27162;DHT22;54464;50.558;9.704;2023-02-15T00:36:13;0.10;99.90
27162;DHT22;54464;50.558;9.704;2023-02-15T00:38:39;0.10;99.90
27162;DHT22;54464;50.558;9.704;2023-02-15T00:41:07;0.10;99.90
27162;DHT22;54464;50.558;9.704;2023-02-15T00:43:34;0.10;99.90
27162;DHT22;54464;50.558;9.704;2023-02-15T00:46:00;0.00;99.90
27162;DHT22;54464;50.558;9.704;2023-02-15T00:48:26;0.00;99.90
27162;DHT22;54464;50.558;9.704;2023-02-15T00:50:55;0.00;99.90
27162;DHT22;54464;50.558;9.704;2023-02-15T00:53:22;0.00;99.90
27162;DHT22;54464;50.558;9.704;2023-02-15T00:55:48;0.00;99.90
27162;DHT22;54464;50.558;9.704;2023-02-15T00:58:14;0.00;99.90
27162;DHT22;54464;50.558;9.704;2023-02-15T01:00:41;0.00;99.90
27162;DHT22;54464;50.558;9.704;2023-02-15T01:03:08;0.00;99.90
27162;DHT22;54464;50.558;9.704;2023-02-15T01:05:34;0.00;99.90
27162;DHT22;54464;50.558;9.704;2023-02-15T01:08:00;0.10;99.90
27162;DHT22;54464;50.558;9.704;2023-02-15T01:10:26;0.10;99.90
27162;DHT22;54464;50.558;9.704;2023-02-15T01:12:53;0.10;99.90
27162;DHT22;54464;50.558;9.704;2023-02-15T01:15:19;0.00;99.90
27162;DHT22;54464;50.558;9.704;2023-02-15T01:17:45;0.00;99.90
27162;DHT22;54464;50.558;9.704;2023-02-15T01:20:17;0.00;99.90
27162;DHT22;54464;50.558;9.704;2023-02-15T01:22:43;-0.10;99.90
27162;DHT22;54464;50.558;9.704;2023-02-15T01:25:09;-0.10;99.90
27162;DHT22;54464;50.558;9.704;2023-02-15T01:27:34;-0.10;99.90
27162;DHT22;54464;50.558;9.704;2023-02-15T01:30:09;-0.10;99.90
27162;DHT22;54464;50.558;9.704;2023-02-15T01:32:35;-0.10;99.90
27162;DHT22;54464;50.558;9.704;2023-02-15T01:35:01;-0.10;99.90
27162;DHT22;54464;50.558;9.704;2023-02-15T01:37:29;-0.10;99.90
27162;DHT22;54464;50.558;9.704;2023-02-15T01:39:55;-0.10;99.90
27162;DHT22;54464;50.558;9.704;2023-02-15T01:42:22;-0.20;99.90
27162;DHT22;54464;50.558;9.704;2023-02-15T01:44:53;-0.20;99.90
27162;DHT22;54464;50.558;9.704;2023-02-15T01:47:45;-0.20;99.90
27162;DHT22;54464;50.558;9.704;2023-02-15T01:53:25;-0.30;99.90
27162;DHT22;54464;50.558;9.704;2023-02-15T01:55:48;-0.30;99.90
27162;DHT22;54464;50.558;9.704;2023-02-15T01:58:14;-0.40;99.90
27162;DHT22;54464;50.558;9.704;2023-02-15T02:00:41;-0.40;99.90
27162;DHT22;54464;50.558;9.704;2023-02-15T02:03:07;-0.40;99.90
27162;DHT22;54464;50.558;9.704;2023-02-15T02:05:33;-0.50;99.90
27162;DHT22;54464;50.558;9.704;2023-02-15T02:08:01;-0.50;99.90
27162;DHT22;54464;50.558;9.704;2023-02-15T02:10:28;-0.50;99.90
27162;DHT22;54464;50.558;9.704;2023-02-15T02:13:00;-0.50;99.90
27162;DHT22;54464;50.558;9.704;2023-02-15T02:15:45;-0.50;99.90
27162;DHT22;54464;50.558;9.704;2023-02-15T02:24:30;-0.40;99.90
27162;DHT22;54464;50.558;9.704;2023-02-15T02:37:09;-0.50;99.90
27162;DHT22;54464;50.558;9.704;2023-02-15T02:42:40;-0.50;99.90
27162;DHT22;54464;50.558;9.704;2023-02-15T02:45:08;-0.50;99.90
27162;DHT22;54464;50.558;9.704;2023-02-15T02:47:43;-0.50;99.90
27162;DHT22;54464;50.558;9.704;2023-02-15T02:50:17;-0.50;99.90
27162;DHT22;54464;50.558;9.704;2023-02-15T02:52:48;-0.50;99.90
27162;DHT22;54464;50.558;9.704;2023-02-15T02:55:22;-0.60;99.90
27162;DHT22;54464;50.558;9.704;2023-02-15T02:57:54;-0.70;99.90
27162;DHT22;54464;50.558;9.704;2023-02-15T03:00:23;-0.70;99.90
27162;DHT22;54464;50.558;9.704;2023-02-15T03:02:52;-0.70;99.90
27162;DHT22;54464;50.558;9.704;2023-02-15T03:05:22;-0.60;99.90
27162;DHT22;54464;50.558;9.704;2023-02-15T03:07:52;-0.70;99.90
27162;DHT22;54464;50.558;9.704;2023-02-15T03:10:21;-0.70;99.90
27162;DHT22;54464;50.558;9.704;2023-02-15T03:12:48;-0.70;99.90
27162;DHT22;54464;50.558;9.704;2023-02-15T03:15:16;-0.70;99.90
27162;DHT22;54464;50.558;9.704;2023-02-15T03:17:46;-0.80;99.90
27162;DHT22;54464;50.558;9.704;2023-02-15T03:20:14;-0.70;99.90
27162;DHT22;54464;50.558;9.704;2023-02-15T03:22:48;-0.70;99.90
27162;DHT22;54464;50.558;9.704;2023-02-15T03:25:23;-0.70;99.90
27162;DHT22;54464;50.558;9.704;2023-02-15T03:27:59;-0.70;99.90
27162;DHT22;54464;50.558;9.704;2023-02-15T03:30:27;-0.70;99.90
27162;DHT22;54464;50.558;9.704;2023-02-15T03:32:54;-0.70;99.90
27162;DHT22;54464;50.558;9.704;2023-02-15T03:35:24;-0.80;99.90
27162;DHT22;54464;50.558;9.704;2023-02-15T03:37:58;-0.80;99.90
27162;DHT22;54464;50.558;9.704;2023-02-15T03:49:04;-0.80;99.90
27162;DHT22;54464;50.558;9.704;2023-02-15T03:51:36;-0.80;99.90
27162;DHT22;54464;50.558;9.704;2023-02-15T03:54:09;-0.80;99.90
27162;DHT22;54464;50.558;9.704;2023-02-15T03:56:40;-0.70;99.90
27162;DHT22;54464;50.558;9.704;2023-02-15T03:59:07;-0.70;99.90
27162;DHT22;54464;50.558;9.704;2023-02-15T04:02:00;-0.70;99.90
27162;DHT22;54464;50.558;9.704;2023-02-15T04:04:35;-0.60;99.90
27162;DHT22;54464;50.558;9.704;2023-02-15T04:07:02;-0.60;99.90
27162;DHT22;54464;50.558;9.704;2023-02-15T04:09:28;-0.60;99.90
27162;DHT22;54464;50.558;9.704;2023-02-15T04:12:12;-0.50;99.90
27162;DHT22;54464;50.558;9.704;2023-02-15T04:14:38;-0.60;99.90
27162;DHT22;54464;50.558;9.704;2023-02-15T04:17:22;-0.50;99.90
27162;DHT22;54464;50.558;9.704;2023-02-15T04:19:48;-0.50;99.90
27162;DHT22;54464;50.558;9.704;2023-02-15T04:22:32;-0.50;99.90
27162;DHT22;54464;50.558;9.704;2023-02-15T04:25:17;-0.60;99.90
27162;DHT22;54464;50.558;9.704;2023-02-15T04:27:47;-0.60;99.90
27162;DHT22;54464;50.558;9.704;2023-02-15T04:30:14;-0.60;99.90
27162;DHT22;54464;50.558;9.704;2023-02-15T04:32:44;-0.50;99.90
27162;DHT22;54464;50.558;9.704;2023-02-15T04:35:24;-0.50;99.90
27162;DHT22;54464;50.558;9.704;2023-02-15T04:37:53;-0.60;99.90
27162;DHT22;54464;50.558;9.704;2023-02-15T04:40:19;-0.60;99.90
27162;DHT22;54464;50.558;9.704;2023-02-15T04:42:49;-0.60;99.90
27162;DHT22;54464;50.558;9.704;2023-02-15T04:45:15;-0.60;99.90
27162;DHT22;54464;50.558;9.704;2023-02-15T04:47:44;-0.50;99.90
27162;DHT22;54464;50.558;9.704;2023-02-15T04:50:10;-0.50;99.90
27162;DHT22;54464;50.558;9.704;2023-02-15T04:52:36;-0.50;99.90
27162;DHT22;54464;50.558;9.704;2023-02-15T04:55:02;-0.50;99.90
27162;DHT22;54464;50.558;9.704;2023-02-15T04:57:28;-0.60;99.90
27162;DHT22;54464;50.558;9.704;2023-02-15T04:59:56;-0.60;99.90
27162;DHT22;54464;50.558;9.704;2023-02-15T05:02:24;-0.60;99.90
27162;DHT22;54464;50.558;9.704;2023-02-15T05:04:50;-0.70;99.90
27162;DHT22;54464;50.558;9.704;2023-02-15T05:07:15;-0.70;99.90
27162;DHT22;54464;50.558;9.704;2023-02-15T05:09:53;-0.70;99.90
27162;DHT22;54464;50.558;9.704;2023-02-15T05:12:25;-0.70;99.90
27162;DHT22;54464;50.558;9.704;2023-02-15T05:14:51;-0.70;99.90
27162;DHT22;54464;50.558;9.704;2023-02-15T05:17:19;-0.70;99.90
27162;DHT22;54464;50.558;9.704;2023-02-15T05:19:44;-0.70;99.90
27162;DHT22;54464;50.558;9.704;2023-02-15T05:22:10;-0.80;99.90
27162;DHT22;54464;50.558;9.704;2023-02-15T05:24:36;-0.80;99.90
27162;DHT22;54464;50.558;9.704;2023-02-15T05:27:21;-0.80;99.90
27162;DHT22;54464;50.558;9.704;2023-02-15T05:30:05;-0.80;99.90
27162;DHT22;54464;50.558;9.704;2023-02-15T05:32:39;-0.80;99.90
27162;DHT22;54464;50.558;9.704;2023-02-15T05:35:06;-0.80;99.90
27162;DHT22;54464;50.558;9.704;2023-02-15T05:37:32;-0.80;99.90
27162;DHT22;54464;50.558;9.704;2023-02-15T05:39:57;-0.70;99.90
27162;DHT22;54464;50.558;9.704;2023-02-15T05:42:23;-0.90;99.90
27162;DHT22;54464;50.558;9.704;2023-02-15T05:44:49;-0.80;99.90
27162;DHT22;54464;50.558;9.704;2023-02-15T05:47:14;-0.80;99.90
27162;DHT22;54464;50.558;9.704;2023-02-15T05:49:40;-0.90;99.90
27162;DHT22;54464;50.558;9.704;2023-02-15T05:52:08;-0.90;99.90
27162;DHT22;54464;50.558;9.704;2023-02-15T05:54:34;-0.90;99.90
27162;DHT22;54464;50.558;9.704;2023-02-15T05:57:00;-0.90;99.90
27162;DHT22;54464;50.558;9.704;2023-02-15T05:59:25;-0.80;99.90
27162;DHT22;54464;50.558;9.704;2023-02-15T06:01:51;-0.90;99.90
27162;DHT22;54464;50.558;9.704;2023-02-15T06:04:16;-1.00;99.90
27162;DHT22;54464;50.558;9.704;2023-02-15T06:06:42;-1.00;99.90
27162;DHT22;54464;50.558;9.704;2023-02-15T06:09:12;-1.00;99.90
27162;DHT22;54464;50.558;9.704;2023-02-15T06:11:38;-1.00;99.90
27162;DHT22;54464;50.558;9.704;2023-02-15T06:14:04;-1.00;99.90
27162;DHT22;54464;50.558;9.704;2023-02-15T06:16:29;-0.90;99.90
27162;DHT22;54464;50.558;9.704;2023-02-15T06:18:55;-1.00;99.90
27162;DHT22;54464;50.558;9.704;2023-02-15T06:21:21;-1.00;99.90
27162;DHT22;54464;50.558;9.704;2023-02-15T06:23:46;-1.00;99.90
27162;DHT22;54464;50.558;9.704;2023-02-15T06:26:12;-1.00;99.90
27162;DHT22;54464;50.558;9.704;2023-02-15T06:28:38;-1.00;99.90
27162;DHT22;54464;50.558;9.704;2023-02-15T06:31:03;-1.00;99.90
27162;DHT22;54464;50.558;9.704;2023-02-15T06:33:29;-1.00;99.90
27162;DHT22;54464;50.558;9.704;2023-02-15T06:35:59;-1.00;99.90
27162;DHT22;54464;50.558;9.704;2023-02-15T06:38:25;-1.00;99.90
27162;DHT22;54464;50.558;9.704;2023-02-15T06:40:51;-0.90;99.90
27162;DHT22;54464;50.558;9.704;2023-02-15T06:43:16;-1.00;99.90
27162;DHT22;54464;50.558;9.704;2023-02-15T06:45:42;-1.00;99.90
27162;DHT22;54464;50.558;9.704;2023-02-15T06:48:07;-0.90;99.90
27162;DHT22;54464;50.558;9.704;2023-02-15T06:50:34;-1.00;99.90
27162;DHT22;54464;50.558;9.704;2023-02-15T06:53:00;-0.90;99.90
27162;DHT22;54464;50.558;9.704;2023-02-15T06:55:25;-0.90;99.90
27162;DHT22;54464;50.558;9.704;2023-02-15T06:57:51;-0.90;99.90
27162;DHT22;54464;50.558;9.704;2023-02-15T07:00:17;-0.90;99.90
27162;DHT22;54464;50.558;9.704;2023-02-15T07:02:44;-0.90;99.90
27162;DHT22;54464;50.558;9.704;2023-02-15T07:05:09;-0.90;99.90
27162;DHT22;54464;50.558;9.704;2023-02-15T07:07:35;-0.90;99.90
27162;DHT22;54464;50.558;9.704;2023-02-15T07:10:02;-1.00;99.90
27162;DHT22;54464;50.558;9.704;2023-02-15T07:12:28;-0.90;99.90
27162;DHT22;54464;50.558;9.704;2023-02-15T07:15:19;-0.90;99.90
27162;DHT22;54464;50.558;9.704;2023-02-15T07:17:48;-0.90;99.90
27162;DHT22;54464;50.558;9.704;2023-02-15T07:20:20;-0.90;99.90
27162;DHT22;54464;50.558;9.704;2023-02-15T07:22:47;-0.80;99.90
27162;DHT22;54464;50.558;9.704;2023-02-15T07:25:13;-0.80;99.90
27162;DHT22;54464;50.558;9.704;2023-02-15T07:27:39;-0.80;99.90
27162;DHT22;54464;50.558;9.704;2023-02-15T07:30:06;-0.70;99.90
27162;DHT22;54464;50.558;9.704;2023-02-15T07:32:33;-0.70;99.90
27162;DHT22;54464;50.558;9.704;2023-02-15T07:34:59;-0.60;99.90
27162;DHT22;54464;50.558;9.704;2023-02-15T07:37:25;-0.60;99.90
27162;DHT22;54464;50.558;9.704;2023-02-15T07:39:51;-0.60;99.90
27162;DHT22;54464;50.558;9.704;2023-02-15T07:42:17;-0.60;99.90
27162;DHT22;54464;50.558;9.704;2023-02-15T07:44:45;-0.60;99.90
27162;DHT22;54464;50.558;9.704;2023-02-15T07:47:10;-0.50;99.90
27162;DHT22;54464;50.558;9.704;2023-02-15T07:49:37;-0.50;99.90
27162;DHT22;54464;50.558;9.704;2023-02-15T07:52:03;-0.40;99.90
27162;DHT22;54464;50.558;9.704;2023-02-15T07:54:29;-0.40;99.90
27162;DHT22;54464;50.558;9.704;2023-02-15T07:56:55;-0.40;99.90
27162;DHT22;54464;50.558;9.704;2023-02-15T07:59:20;-0.40;99.90
27162;DHT22;54464;50.558;9.704;2023-02-15T08:01:46;-0.40;99.90
27162;DHT22;54464;50.558;9.704;2023-02-15T08:04:12;-0.30;99.90
27162;DHT22;54464;50.558;9.704;2023-02-15T08:06:38;-0.20;99.90
27162;DHT22;54464;50.558;9.704;2023-02-15T08:09:05;-0.20;99.90
27162;DHT22;54464;50.558;9.704;2023-02-15T08:11:33;-0.20;99.90
27162;DHT22;54464;50.558;9.704;2023-02-15T08:14:20;-0.20;99.90
27162;DHT22;54464;50.558;9.704;2023-02-15T08:16:55;-0.20;99.90
27162;DHT22;54464;50.558;9.704;2023-02-15T08:19:26;-0.10;99.90
27162;DHT22;54464;50.558;9.704;2023-02-15T08:21:57;-0.10;99.90
27162;DHT22;54464;50.558;9.704;2023-02-15T08:24:26;-0.20;99.90
27162;DHT22;54464;50.558;9.704;2023-02-15T08:26:53;-0.20;99.90
27162;DHT22;54464;50.558;9.704;2023-02-15T08:29:21;-0.10;99.90
27162;DHT22;54464;50.558;9.704;2023-02-15T08:31:56;0.00;99.90
27162;DHT22;54464;50.558;9.704;2023-02-15T08:34:28;0.30;99.90
27162;DHT22;54464;50.558;9.704;2023-02-15T08:36:53;0.50;99.90
27162;DHT22;54464;50.558;9.704;2023-02-15T08:39:19;0.70;99.90
27162;DHT22;54464;50.558;9.704;2023-02-15T08:41:47;0.70;99.90
27162;DHT22;54464;50.558;9.704;2023-02-15T08:44:15;0.70;99.90
27162;DHT22;54464;50.558;9.704;2023-02-15T08:46:43;0.70;99.90
27162;DHT22;54464;50.558;9.704;2023-02-15T08:49:14;0.70;99.90
27162;DHT22;54464;50.558;9.704;2023-02-15T08:51:40;0.80;99.90
27162;DHT22;54464;50.558;9.704;2023-02-15T08:54:09;0.70;99.90
27162;DHT22;54464;50.558;9.704;2023-02-15T08:56:38;0.80;99.90
27162;DHT22;54464;50.558;9.704;2023-02-15T08:59:05;0.90;99.90
27162;DHT22;54464;50.558;9.704;2023-02-15T09:01:33;0.80;99.90
27162;DHT22;54464;50.558;9.704;2023-02-15T09:04:01;0.90;99.90
27162;DHT22;54464;50.558;9.704;2023-02-15T09:06:27;0.90;99.90
27162;DHT22;54464;50.558;9.704;2023-02-15T09:08:53;1.00;99.90
27162;DHT22;54464;50.558;9.704;2023-02-15T09:11:25;1.10;99.90
27162;DHT22;54464;50.558;9.704;2023-02-15T09:13:55;1.30;99.90
27162;DHT22;54464;50.558;9.704;2023-02-15T09:16:22;1.40;99.90
27162;DHT22;54464;50.558;9.704;2023-02-15T09:18:49;1.40;99.90
27162;DHT22;54464;50.558;9.704;2023-02-15T09:21:17;1.30;99.90
27162;DHT22;54464;50.558;9.704;2023-02-15T09:23:45;1.20;99.90
27162;DHT22;54464;50.558;9.704;2023-02-15T09:26:14;1.20;99.90
27162;DHT22;54464;50.558;9.704;2023-02-15T09:28:41;1.20;99.90
27162;DHT22;54464;50.558;9.704;2023-02-15T09:31:09;1.20;99.90
27162;DHT22;54464;50.558;9.704;2023-02-15T09:33:36;1.30;99.90
27162;DHT22;54464;50.558;9.704;2023-02-15T09:36:03;1.40;99.90
27162;DHT22;54464;50.558;9.704;2023-02-15T09:38:30;1.50;99.90
27162;DHT22;54464;50.558;9.704;2023-02-15T09:44:05;2.00;99.90
27162;DHT22;54464;50.558;9.704;2023-02-15T09:52:38;2.10;99.90
27162;DHT22;54464;50.558;9.704;2023-02-15T10:25:51;4.30;99.90
27162;DHT22;54464;50.558;9.704;2023-02-15T10:37:06;4.40;99.90
27162;DHT22;54464;50.558;9.704;2023-02-15T10:39:46;4.60;99.90
27162;DHT22;54464;50.558;9.704;2023-02-15T10:45:20;5.50;99.90
27162;DHT22;54464;50.558;9.704;2023-02-15T10:58:53;9.20;99.90
27162;DHT22;54464;50.558;9.704;2023-02-15T11:01:55;10.20;99.10
27162;DHT22;54464;50.558;9.704;2023-02-15T11:07:24;12.20;95.70
27162;DHT22;54464;50.558;9.704;2023-02-15T11:09:59;11.80;95.80
27162;DHT22;54464;50.558;9.704;2023-02-15T11:12:28;11.90;95.70
27162;DHT22;54464;50.558;9.704;2023-02-15T11:15:01;12.50;94.30
27162;DHT22;54464;50.558;9.704;2023-02-15T11:17:35;12.30;94.00
27162;DHT22;54464;50.558;9.704;2023-02-15T11:20:45;12.20;94.30
27162;DHT22;54464;50.558;9.704;2023-02-15T11:23:14;12.30;94.00
27162;DHT22;54464;50.558;9.704;2023-02-15T11:25:44;12.10;94.10
27162;DHT22;54464;50.558;9.704;2023-02-15T11:28:22;11.40;94.60
27162;DHT22;54464;50.558;9.704;2023-02-15T11:30:54;10.50;95.90
27162;DHT22;54464;50.558;9.704;2023-02-15T11:33:34;9.90;96.90
27162;DHT22;54464;50.558;9.704;2023-02-15T11:36:08;9.70;98.30
27162;DHT22;54464;50.558;9.704;2023-02-15T11:38:34;10.00;97.70
27162;DHT22;54464;50.558;9.704;2023-02-15T11:41:05;10.10;98.00
27162;DHT22;54464;50.558;9.704;2023-02-15T11:46:33;12.80;93.90
27162;DHT22;54464;50.558;9.704;2023-02-15T11:48:59;14.20;92.70
27162;DHT22;54464;50.558;9.704;2023-02-15T11:51:25;15.00;90.70
27162;DHT22;54464;50.558;9.704;2023-02-15T11:53:53;15.10;89.10
27162;DHT22;54464;50.558;9.704;2023-02-15T11:56:24;15.00;89.20
27162;DHT22;54464;50.558;9.704;2023-02-15T11:58:58;14.50;90.70
27162;DHT22;54464;50.558;9.704;2023-02-15T12:06:27;12.10;93.20
27162;DHT22;54464;50.558;9.704;2023-02-15T12:12:24;10.20;96.60
27162;DHT22;54464;50.558;9.704;2023-02-15T12:14:55;9.80;97.60
27162;DHT22;54464;50.558;9.704;2023-02-15T12:17:23;9.40;98.30
27162;DHT22;54464;50.558;9.704;2023-02-15T12:19:50;8.60;99.40
27162;DHT22;54464;50.558;9.704;2023-02-15T12:22:54;8.30;99.90
27162;DHT22;54464;50.558;9.704;2023-02-15T12:27:51;8.20;99.90
27162;DHT22;54464;50.558;9.704;2023-02-15T12:30:21;8.00;99.90
27162;DHT22;54464;50.558;9.704;2023-02-15T12:32:53;7.80;99.90
27162;DHT22;54464;50.558;9.704;2023-02-15T12:35:33;7.80;99.90
27162;DHT22;54464;50.558;9.704;2023-02-15T12:38:02;7.60;99.90
27162;DHT22;54464;50.558;9.704;2023-02-15T12:40:32;7.30;99.90
27162;DHT22;54464;50.558;9.704;2023-02-15T12:42:59;7.10;99.90
27162;DHT22;54464;50.558;9.704;2023-02-15T12:45:26;7.00;99.90
27162;DHT22;54464;50.558;9.704;2023-02-15T12:48:21;6.70;99.90
27162;DHT22;54464;50.558;9.704;2023-02-15T12:50:49;6.30;99.90
27162;DHT22;54464;50.558;9.704;2023-02-15T12:53:18;6.10;99.90
27162;DHT22;54464;50.558;9.704;2023-02-15T12:58:20;6.30;99.90
27162;DHT22;54464;50.558;9.704;2023-02-15T13:00:47;6.30;99.90
27162;DHT22;54464;50.558;9.704;2023-02-15T13:03:21;6.50;99.90
27162;DHT22;54464;50.558;9.704;2023-02-15T13:05:54;6.60;99.90
27162;DHT22;54464;50.558;9.704;2023-02-15T13:08:30;6.60;99.90
27162;DHT22;54464;50.558;9.704;2023-02-15T13:11:06;6.50;99.90
27162;DHT22;54464;50.558;9.704;2023-02-15T13:13:51;6.20;99.90
27162;DHT22;54464;50.558;9.704;2023-02-15T13:16:37;6.20;99.90
27162;DHT22;54464;50.558;9.704;2023-02-15T13:19:09;6.10;99.90
27162;DHT22;54464;50.558;9.704;2023-02-15T13:21:40;6.00;99.90
27162;DHT22;54464;50.558;9.704;2023-02-15T13:26:45;5.90;99.90
27162;DHT22;54464;50.558;9.704;2023-02-15T13:29:24;5.80;99.90
27162;DHT22;54464;50.558;9.704;2023-02-15T13:31:52;5.90;99.90
27162;DHT22;54464;50.558;9.704;2023-02-15T13:34:29;5.90;99.90
27162;DHT22;54464;50.558;9.704;2023-02-15T13:39:40;6.10;99.90
27162;DHT22;54464;50.558;9.704;2023-02-15T13:47:57;6.30;99.90
27162;DHT22;54464;50.558;9.704;2023-02-15T13:50:34;6.50;99.90
27162;DHT22;54464;50.558;9.704;2023-02-15T13:59:01;7.40;99.90
27162;DHT22;54464;50.558;9.704;2023-02-15T14:04:52;7.10;99.90
27162;DHT22;54464;50.558;9.704;2023-02-15T14:07:41;7.00;99.90
27162;DHT22;54464;50.558;9.704;2023-02-15T14:15:50;7.60;99.90
27162;DHT22;54464;50.558;9.704;2023-02-15T14:18:38;8.50;99.90
27162;DHT22;54464;50.558;9.704;2023-02-15T14:31:45;8.30;99.90
27162;DHT22;54464;50.558;9.704;2023-02-15T14:34:23;7.70;99.90
27162;DHT22;54464;50.558;9.704;2023-02-15T14:36:51;7.50;99.90
27162;DHT22;54464;50.558;9.704;2023-02-15T14:39:26;7.40;99.90
27162;DHT22;54464;50.558;9.704;2023-02-15T14:42:54;7.20;99.90
27162;DHT22;54464;50.558;9.704;2023-02-15T14:45:34;7.30;99.90
27162;DHT22;54464;50.558;9.704;2023-02-15T14:48:17;7.20;99.90
27162;DHT22;54464;50.558;9.704;2023-02-15T14:50:47;7.10;99.90
27162;DHT22;54464;50.558;9.704;2023-02-15T14:56:16;7.10;99.90
27162;DHT22;54464;50.558;9.704;2023-02-15T15:01:15;7.10;99.90
27162;DHT22;54464;50.558;9.704;2023-02-15T15:03:51;7.00;99.90
27162;DHT22;54464;50.558;9.704;2023-02-15T15:06:30;7.10;99.90
27162;DHT22;54464;50.558;9.704;2023-02-15T15:09:32;7.20;99.90
27162;DHT22;54464;50.558;9.704;2023-02-15T15:14:54;6.70;99.90
27162;DHT22;54464;50.558;9.704;2023-02-15T15:20:12;6.50;99.90
27162;DHT22;54464;50.558;9.704;2023-02-15T15:22:40;6.50;99.90
27162;DHT22;54464;50.558;9.704;2023-02-15T15:27:55;6.40;99.90
27162;DHT22;54464;50.558;9.704;2023-02-15T15:32:59;5.80;99.90
27162;DHT22;54464;50.558;9.704;2023-02-15T15:36:00;5.50;99.90
27162;DHT22;54464;50.558;9.704;2023-02-15T15:41:40;5.20;99.90
27162;DHT22;54464;50.558;9.704;2023-02-15T15:50:00;4.90;99.90
27162;DHT22;54464;50.558;9.704;2023-02-15T15:52:27;4.90;99.90
27162;DHT22;54464;50.558;9.704;2023-02-15T15:55:03;4.80;99.90
27162;DHT22;54464;50.558;9.704;2023-02-15T15:57:37;4.80;99.90
27162;DHT22;54464;50.558;9.704;2023-02-15T16:00:04;4.80;99.90
27162;DHT22;54464;50.558;9.704;2023-02-15T16:02:54;4.90;99.90
27162;DHT22;54464;50.558;9.704;2023-02-15T16:05:21;4.90;99.90
27162;DHT22;54464;50.558;9.704;2023-02-15T16:07:46;4.80;99.90
27162;DHT22;54464;50.558;9.704;2023-02-15T16:10:24;4.70;99.90
27162;DHT22;54464;50.558;9.704;2023-02-15T16:12:50;4.60;99.90
27162;DHT22;54464;50.558;9.704;2023-02-15T16:15:23;4.50;99.90
27162;DHT22;54464;50.558;9.704;2023-02-15T16:17:53;4.40;99.90
27162;DHT22;54464;50.558;9.704;2023-02-15T16:20:24;4.30;99.90
27162;DHT22;54464;50.558;9.704;2023-02-15T16:26:35;4.10;99.90
27162;DHT22;54464;50.558;9.704;2023-02-15T16:29:17;3.90;99.90
27162;DHT22;54464;50.558;9.704;2023-02-15T16:31:55;3.80;99.90
27162;DHT22;54464;50.558;9.704;2023-02-15T16:34:21;3.80;99.90
27162;DHT22;54464;50.558;9.704;2023-02-15T16:36:46;3.70;99.90
27162;DHT22;54464;50.558;9.704;2023-02-15T16:39:20;3.70;99.90
27162;DHT22;54464;50.558;9.704;2023-02-15T16:41:47;3.60;99.90
27162;DHT22;54464;50.558;9.704;2023-02-15T16:44:19;3.60;99.90
27162;DHT22;54464;50.558;9.704;2023-02-15T16:46:50;3.50;99.90
27162;DHT22;54464;50.558;9.704;2023-02-15T16:49:22;3.40;99.90
27162;DHT22;54464;50.558;9.704;2023-02-15T16:52:00;3.30;99.90
27162;DHT22;54464;50.558;9.704;2023-02-15T16:54:28;3.20;99.90
27162;DHT22;54464;50.558;9.704;2023-02-15T16:56:55;3.20;99.90
27162;DHT22;54464;50.558;9.704;2023-02-15T16:59:38;3.10;99.90
27162;DHT22;54464;50.558;9.704;2023-02-15T17:02:23;3.00;99.90
27162;DHT22;54464;50.558;9.704;2023-02-15T17:07:41;2.90;99.90
27162;DHT22;54464;50.558;9.704;2023-02-15T17:13:11;2.70;99.90
27162;DHT22;54464;50.558;9.704;2023-02-15T17:18:19;2.50;99.90
27162;DHT22;54464;50.558;9.704;2023-02-15T17:20:47;2.40;99.90
27162;DHT22;54464;50.558;9.704;2023-02-15T17:26:35;2.20;99.90
27162;DHT22;54464;50.558;9.704;2023-02-15T17:31:55;2.00;99.90
27162;DHT22;54464;50.558;9.704;2023-02-15T17:40:26;1.90;99.90
27162;DHT22;54464;50.558;9.704;2023-02-15T17:42:53;1.90;99.90
27162;DHT22;54464;50.558;9.704;2023-02-15T17:45:19;1.80;99.90
27162;DHT22;54464;50.558;9.704;2023-02-15T17:47:47;1.80;99.90
27162;DHT22;54464;50.558;9.704;2023-02-15T17:50:19;1.70;99.90
27162;DHT22;54464;50.558;9.704;2023-02-15T17:52:45;1.60;99.90
27162;DHT22;54464;50.558;9.704;2023-02-15T17:55:14;1.60;99.90
27162;DHT22;54464;50.558;9.704;2023-02-15T17:57:59;1.60;99.90
27162;DHT22;54464;50.558;9.704;2023-02-15T18:00:25;1.50;99.90
27162;DHT22;54464;50.558;9.704;2023-02-15T18:03:10;1.50;99.90
27162;DHT22;54464;50.558;9.704;2023-02-15T18:05:54;1.50;99.90
27162;DHT22;54464;50.558;9.704;2023-02-15T18:08:38;1.40;99.90
27162;DHT22;54464;50.558;9.704;2023-02-15T18:11:22;1.40;99.90
27162;DHT22;54464;50.558;9.704;2023-02-15T18:14:05;1.40;99.90
27162;DHT22;54464;50.558;9.704;2023-02-15T18:16:40;1.40;99.90
27162;DHT22;54464;50.558;9.704;2023-02-15T18:19:26;1.30;99.90
27162;DHT22;54464;50.558;9.704;2023-02-15T18:21:52;1.30;99.90
27162;DHT22;54464;50.558;9.704;2023-02-15T18:24:24;1.30;99.90
27162;DHT22;54464;50.558;9.704;2023-02-15T18:26:52;1.30;99.90
27162;DHT22;54464;50.558;9.704;2023-02-15T18:29:18;1.30;99.90
27162;DHT22;54464;50.558;9.704;2023-02-15T18:31:47;1.20;99.90
27162;DHT22;54464;50.558;9.704;2023-02-15T18:34:27;1.20;99.90
27162;DHT22;54464;50.558;9.704;2023-02-15T18:36:54;1.20;99.90
27162;DHT22;54464;50.558;9.704;2023-02-15T18:39:39;1.10;99.90
27162;DHT22;54464;50.558;9.704;2023-02-15T18:42:23;1.10;99.90
27162;DHT22;54464;50.558;9.704;2023-02-15T18:44:54;1.00;99.90
27162;DHT22;54464;50.558;9.704;2023-02-15T18:47:20;1.00;99.90
27162;DHT22;54464;50.558;9.704;2023-02-15T18:49:46;1.00;99.90
27162;DHT22;54464;50.558;9.704;2023-02-15T18:52:17;1.00;99.90
27162;DHT22;54464;50.558;9.704;2023-02-15T18:54:44;0.90;99.90
27162;DHT22;54464;50.558;9.704;2023-02-15T18:57:13;0.90;99.90
27162;DHT22;54464;50.558;9.704;2023-02-15T18:59:39;0.80;99.90
27162;DHT22;54464;50.558;9.704;2023-02-15T19:02:13;0.80;99.90
27162;DHT22;54464;50.558;9.704;2023-02-15T19:04:39;0.80;99.90
27162;DHT22;54464;50.558;9.704;2023-02-15T19:07:05;0.80;99.90
27162;DHT22;54464;50.558;9.704;2023-02-15T19:09:31;0.70;99.90
27162;DHT22;54464;50.558;9.704;2023-02-15T19:11:57;0.70;99.90
27162;DHT22;54464;50.558;9.704;2023-02-15T19:14:28;0.70;99.90
27162;DHT22;54464;50.558;9.704;2023-02-15T19:16:55;0.60;99.90
27162;DHT22;54464;50.558;9.704;2023-02-15T19:19:21;0.60;99.90
27162;DHT22;54464;50.558;9.704;2023-02-15T19:21:47;0.60;99.90